createdAt,value
2023-03-22T00:00:19.719Z,97433.88
2023-03-22T00:02:48.192Z,97427.91
2023-03-22T00:05:18.191Z,97435.22
2023-03-22T00:07:46.509Z,97430.91
2023-03-22T00:10:14.807Z,97434.56
2023-03-22T00:12:43.100Z,97442.53
2023-03-22T00:15:12.548Z,97440.06
2023-03-22T00:17:42.057Z,97431.44
2023-03-22T00:20:12.766Z,97426.28
2023-03-22T00:22:45.585Z,97419.44
2023-03-22T00:25:13.880Z,97416.94
2023-03-22T00:27:42.406Z,97421.28
2023-03-22T00:30:12.989Z,97415.28
2023-03-22T00:32:42.398Z,97409.13
2023-03-22T00:35:12.458Z,97419.75
2023-03-22T00:37:43.501Z,97414.44
2023-03-22T00:40:17.855Z,97411.13
2023-03-22T00:42:48.994Z,97407.63
2023-03-22T00:45:19.858Z,97413.97
2023-03-22T00:47:48.431Z,97400.00
2023-03-22T00:50:16.728Z,97397.66
2023-03-22T00:52:45.107Z,97391.34
2023-03-22T00:55:14.816Z,97389.69
2023-03-22T00:57:43.189Z,97380.22
2023-03-22T01:00:16.480Z,97390.19
2023-03-22T01:02:45.265Z,97385.03
2023-03-22T01:05:21.893Z,97387.69
2023-03-22T01:07:51.791Z,97385.03
2023-03-22T01:10:24.278Z,97391.38
2023-03-22T01:12:52.696Z,97385.38
2023-03-22T01:15:24.417Z,97386.38
2023-03-22T01:17:53.449Z,97391.38
2023-03-22T01:20:22.218Z,97388.53
2023-03-22T01:22:50.595Z,97386.88
2023-03-22T01:25:23.329Z,97391.38
2023-03-22T01:27:51.673Z,97390.56
2023-03-22T01:30:20.268Z,97391.53
2023-03-22T01:32:48.598Z,97381.22
2023-03-22T01:35:19.986Z,97382.06
2023-03-22T01:37:48.371Z,97371.59
2023-03-22T01:40:17.093Z,97372.78
2023-03-22T01:42:46.806Z,97374.75
2023-03-22T01:45:40.101Z,97373.13
2023-03-22T01:48:15.979Z,97367.13
2023-03-22T01:50:51.591Z,97368.94
2023-03-22T01:53:23.728Z,97373.44
2023-03-22T01:55:53.589Z,97364.13
2023-03-22T01:58:23.392Z,97366.28
2023-03-22T02:00:53.209Z,97370.78
2023-03-22T02:03:32.237Z,97364.78
2023-03-22T02:06:00.708Z,97357.81
2023-03-22T02:08:32.019Z,97358.63
2023-03-22T02:11:00.781Z,97350.00
2023-03-22T02:14:18.522Z,97354.81
2023-03-22T02:17:00.158Z,97357.66
2023-03-22T02:20:33.201Z,97362.28
2023-03-22T02:24:05.236Z,97367.13
2023-03-22T02:27:16.335Z,97351.53
2023-03-22T02:29:50.097Z,97346.38
2023-03-22T02:33:05.300Z,97346.53
2023-03-22T02:36:13.776Z,97336.22
2023-03-22T02:39:09.918Z,97333.56
2023-03-22T02:41:57.260Z,97331.72
2023-03-22T02:44:33.251Z,97335.22
2023-03-22T02:47:06.421Z,97343.03
2023-03-22T02:49:39.095Z,97351.84
2023-03-22T02:52:17.509Z,97343.88
2023-03-22T02:54:53.836Z,97340.53
2023-03-22T02:57:29.879Z,97343.19
2023-03-22T03:00:02.840Z,97339.22
2023-03-22T03:02:32.294Z,97353.00
2023-03-22T03:05:03.520Z,97346.88
2023-03-22T03:07:32.569Z,97344.22
2023-03-22T03:10:02.679Z,97338.06
2023-03-22T03:12:31.064Z,97337.03
2023-03-22T03:14:59.321Z,97349.69
2023-03-22T03:17:47.380Z,97345.34
2023-03-22T03:20:30.288Z,97349.88
2023-03-22T03:23:16.375Z,97345.84
2023-03-22T03:25:57.998Z,97353.66
2023-03-22T03:28:38.389Z,97353.81
2023-03-22T03:31:22.048Z,97347.88
2023-03-22T03:34:01.165Z,97346.50
2023-03-22T03:36:32.071Z,97346.38
2023-03-22T03:39:02.987Z,97344.66
2023-03-22T03:41:33.810Z,97347.50
2023-03-22T03:44:04.703Z,97344.84
2023-03-22T03:46:33.166Z,97355.47
2023-03-22T03:49:02.697Z,97352.16
2023-03-22T03:51:31.175Z,97345.16
2023-03-22T03:53:59.487Z,97348.81
2023-03-22T03:56:27.869Z,97346.34
2023-03-22T03:58:58.303Z,97342.19
2023-03-22T04:01:28.575Z,97353.81
2023-03-22T04:03:57.204Z,97362.09
2023-03-22T04:06:25.629Z,97357.97
2023-03-22T04:08:54.055Z,97365.41
2023-03-22T04:11:22.389Z,97368.41
2023-03-22T04:13:50.823Z,97363.75
2023-03-22T04:16:20.635Z,97356.78
2023-03-22T04:18:48.984Z,97352.13
2023-03-22T04:21:21.732Z,97350.97
2023-03-22T04:23:53.581Z,97346.16
2023-03-22T04:26:21.903Z,97344.13
2023-03-22T04:28:50.277Z,97343.63
2023-03-22T04:31:20.058Z,97338.81
2023-03-22T04:33:49.832Z,97338.47
2023-03-22T04:36:18.226Z,97334.31
2023-03-22T04:38:54.063Z,97347.09
2023-03-22T04:41:22.395Z,97338.75
2023-03-22T04:43:51.114Z,97329.47
2023-03-22T04:46:21.385Z,97333.59
2023-03-22T04:48:49.743Z,97341.06
2023-03-22T04:51:18.095Z,97338.03
2023-03-22T04:53:46.505Z,97335.72
2023-03-22T04:56:16.601Z,97335.22
2023-03-22T04:58:47.582Z,97337.34
2023-03-22T05:01:18.624Z,97336.19
2023-03-22T05:03:48.404Z,97334.66
2023-03-22T05:06:19.741Z,97338.59
2023-03-22T05:08:48.103Z,97337.25
2023-03-22T05:11:19.463Z,97342.22
2023-03-22T05:13:47.784Z,97337.38
2023-03-22T05:16:16.151Z,97343.00
2023-03-22T05:18:45.852Z,97352.44
2023-03-22T05:21:22.026Z,97355.25
2023-03-22T05:23:51.615Z,97363.66
2023-03-22T05:26:20.437Z,97368.28
2023-03-22T05:28:48.872Z,97364.28
2023-03-22T05:31:17.220Z,97376.38
2023-03-22T05:33:46.705Z,97374.03
2023-03-22T05:36:16.907Z,97373.50
2023-03-22T05:38:45.836Z,97378.28
2023-03-22T05:41:14.787Z,97376.94
2023-03-22T05:43:43.759Z,97379.72
2023-03-22T05:46:13.647Z,97387.16
2023-03-22T05:48:42.330Z,97380.34
2023-03-22T05:51:18.163Z,97390.97
2023-03-22T05:53:49.206Z,97385.81
2023-03-22T05:56:24.935Z,97388.47
2023-03-22T05:58:53.492Z,97383.00
2023-03-22T06:01:23.179Z,97377.84
2023-03-22T06:03:51.545Z,97381.84
2023-03-22T06:06:24.026Z,97367.63
2023-03-22T06:08:53.943Z,97376.25
2023-03-22T06:11:23.117Z,97371.78
2023-03-22T06:13:51.462Z,97375.78
2023-03-22T06:16:20.032Z,97376.63
2023-03-22T06:18:48.381Z,97377.81
2023-03-22T06:21:16.700Z,97376.53
2023-03-22T06:23:45.096Z,97379.69
2023-03-22T06:26:14.779Z,97372.41
2023-03-22T06:28:43.123Z,97372.94
2023-03-22T06:31:11.972Z,97373.28
2023-03-22T06:33:40.412Z,97371.16
2023-03-22T06:36:09.563Z,97376.00
2023-03-22T06:38:37.846Z,97370.38
2023-03-22T06:41:06.699Z,97372.56
2023-03-22T06:43:36.434Z,97371.25
2023-03-22T06:46:05.123Z,97375.06
2023-03-22T06:48:33.456Z,97370.84
2023-03-22T06:51:01.789Z,97369.22
2023-03-22T06:53:30.101Z,97365.75
2023-03-22T06:55:58.488Z,97369.25
2023-03-22T06:58:27.107Z,97376.09
2023-03-22T07:00:58.510Z,97373.16
2023-03-22T07:03:26.978Z,97375.34
2023-03-22T07:06:02.005Z,97372.22
2023-03-22T07:08:30.304Z,97381.38
2023-03-22T07:10:58.591Z,97384.53
2023-03-22T07:13:27.349Z,97383.38
2023-03-22T07:15:58.892Z,97382.25
2023-03-22T07:18:27.628Z,97379.75
2023-03-22T07:20:55.950Z,97379.91
2023-03-22T07:23:24.540Z,97384.91
2023-03-22T07:25:55.852Z,97384.19
2023-03-22T07:28:24.888Z,97383.50
2023-03-22T07:31:03.047Z,97373.16
2023-03-22T07:33:31.452Z,97368.09
2023-03-22T07:36:00.138Z,97372.56
2023-03-22T07:38:28.481Z,97370.19
2023-03-22T07:40:56.790Z,97367.47
2023-03-22T07:43:25.433Z,97357.69
2023-03-22T07:45:54.580Z,97356.28
2023-03-22T07:48:25.624Z,97352.66
2023-03-22T07:51:00.045Z,97348.22
2023-03-22T07:53:28.342Z,97347.28
2023-03-22T07:55:56.654Z,97348.78
2023-03-22T07:58:24.928Z,97357.31
2023-03-22T08:00:53.238Z,97356.75
2023-03-22T08:03:23.341Z,97352.69
2023-03-22T08:05:51.847Z,97350.06
2023-03-22T08:08:20.651Z,97354.38
2023-03-22T08:10:52.315Z,97353.53
2023-03-22T08:13:20.751Z,97356.81
2023-03-22T08:15:49.088Z,97351.78
2023-03-22T08:18:17.386Z,97350.09
2023-03-22T08:20:47.086Z,97355.22
2023-03-22T08:23:16.353Z,97351.03
2023-03-22T08:25:47.536Z,97352.44
2023-03-22T08:28:16.834Z,97348.63
2023-03-22T08:30:46.105Z,97356.56
2023-03-22T08:33:14.997Z,97350.53
2023-03-22T08:35:45.084Z,97345.28
2023-03-22T08:38:14.821Z,97349.09
2023-03-22T08:40:43.234Z,97347.94
2023-03-22T08:43:11.580Z,97353.16
2023-03-22T08:45:40.256Z,97352.22
2023-03-22T08:48:08.822Z,97350.22
2023-03-22T08:50:39.771Z,97352.13
2023-03-22T08:53:08.233Z,97352.59
2023-03-22T08:55:45.016Z,97345.78
2023-03-22T08:58:13.961Z,97347.22
2023-03-22T09:00:49.022Z,97347.69
2023-03-22T09:03:18.106Z,97340.88
2023-03-22T09:05:46.392Z,97341.25
2023-03-22T09:08:19.079Z,97333.78
2023-03-22T09:10:51.806Z,97331.47
2023-03-22T09:13:20.798Z,97335.97
2023-03-22T09:15:49.468Z,97330.16
2023-03-22T09:18:17.832Z,97336.25
2023-03-22T09:20:46.780Z,97333.09
2023-03-22T09:23:15.526Z,97342.75
2023-03-22T09:25:45.658Z,97337.34
2023-03-22T09:28:15.496Z,97333.31
2023-03-22T09:30:44.804Z,97334.25
2023-03-22T09:33:13.342Z,97329.81
2023-03-22T09:35:43.529Z,97324.78
2023-03-22T09:38:12.545Z,97323.00
2023-03-22T09:40:52.290Z,97316.09
2023-03-22T09:43:25.232Z,97317.22
2023-03-22T09:45:54.016Z,97307.00
2023-03-22T09:48:29.612Z,97304.75
2023-03-22T09:50:58.091Z,97307.31
2023-03-22T09:53:29.617Z,97296.38
2023-03-22T09:56:07.874Z,97299.75
2023-03-22T09:58:44.604Z,97297.56
2023-03-22T10:01:21.731Z,97294.47
2023-03-22T10:04:16.496Z,97287.47
2023-03-22T10:06:49.860Z,97283.75
2023-03-22T10:09:24.260Z,97286.50
2023-03-22T10:12:04.957Z,97277.31
2023-03-22T10:14:41.473Z,97273.63
2023-03-22T10:17:16.052Z,97277.19
2023-03-22T10:19:53.455Z,97271.22
2023-03-22T10:22:27.851Z,97271.69
2023-03-22T10:24:57.587Z,97271.69
2023-03-22T10:27:29.590Z,97271.91
2023-03-22T10:30:06.035Z,97271.00
2023-03-22T10:32:56.403Z,97264.19
2023-03-22T10:35:25.884Z,97268.78
2023-03-22T10:37:56.205Z,97261.22
2023-03-22T10:40:28.282Z,97263.81
2023-03-22T10:43:00.944Z,97255.81
2023-03-22T10:45:33.169Z,97247.56
2023-03-22T10:48:06.947Z,97246.34
2023-03-22T10:50:38.323Z,97247.16
2023-03-22T10:53:09.966Z,97248.69
2023-03-22T10:55:41.792Z,97255.38
2023-03-22T10:58:16.608Z,97249.34
2023-03-22T11:00:49.204Z,97248.94
2023-03-22T11:03:34.541Z,97243.97
2023-03-22T11:06:08.083Z,97244.63
2023-03-22T11:08:46.656Z,97244.47
2023-03-22T11:11:23.372Z,97241.38
2023-03-22T11:13:56.027Z,97239.09
2023-03-22T11:16:26.412Z,97245.22
2023-03-22T11:18:56.362Z,97235.50
2023-03-22T11:21:31.790Z,97237.25
2023-03-22T11:24:05.719Z,97235.66
2023-03-22T11:26:39.191Z,97245.28
2023-03-22T11:29:18.338Z,97231.81
2023-03-22T11:31:58.325Z,97232.47
2023-03-22T11:34:29.724Z,97230.16
2023-03-22T11:37:02.143Z,97220.25
2023-03-22T11:39:37.096Z,97213.25
2023-03-22T11:42:08.064Z,97219.56
2023-03-22T11:44:38.083Z,97209.03
2023-03-22T11:47:10.140Z,97203.38
2023-03-22T11:49:47.965Z,97205.31
2023-03-22T11:52:20.297Z,97205.63
2023-03-22T11:54:49.396Z,97193.53
2023-03-22T11:57:21.703Z,97188.75
2023-03-22T11:59:56.727Z,97186.06
2023-03-22T12:02:30.502Z,97182.94
2023-03-22T12:05:05.415Z,97175.66
2023-03-22T12:07:36.868Z,97180.09
2023-03-22T12:10:12.318Z,97176.63
2023-03-22T12:12:46.843Z,97174.78
2023-03-22T12:15:20.938Z,97169.69
2023-03-22T12:17:58.232Z,97171.88
2023-03-22T12:20:40.415Z,97164.59
2023-03-22T12:23:16.630Z,97166.25
2023-03-22T12:25:51.638Z,97154.63
2023-03-22T12:28:24.460Z,97145.91
2023-03-22T12:30:57.587Z,97145.59
2023-03-22T12:33:44.419Z,97142.06
2023-03-22T12:36:18.593Z,97138.28
2023-03-22T12:38:51.147Z,97141.00
2023-03-22T12:41:27.272Z,97130.13
2023-03-22T12:43:59.409Z,97141.81
2023-03-22T12:46:31.227Z,97130.31
2023-03-22T12:49:07.538Z,97119.97
2023-03-22T12:51:36.186Z,97125.72
2023-03-22T12:54:05.495Z,97128.38
2023-03-22T12:56:41.208Z,97126.50
2023-03-22T12:59:16.765Z,97124.28
2023-03-22T13:01:52.717Z,97116.41
2023-03-22T13:04:53.408Z,97110.97
2023-03-22T13:07:53.416Z,97108.56
2023-03-22T13:11:01.856Z,97106.13
2023-03-22T13:13:47.717Z,97108.34
2023-03-22T13:16:24.618Z,97100.25
2023-03-22T13:19:04.871Z,97106.28
2023-03-22T13:21:38.211Z,97097.69
2023-03-22T13:24:24.114Z,97100.16
2023-03-22T13:26:54.870Z,97100.97
2023-03-22T13:29:36.298Z,97092.81
2023-03-22T13:32:09.083Z,97092.31
2023-03-22T13:34:46.528Z,97090.91
2023-03-22T13:37:35.272Z,97086.63
2023-03-22T13:40:13.753Z,97090.44
2023-03-22T13:42:43.009Z,97085.81
2023-03-22T13:45:32.427Z,97074.41
2023-03-22T13:48:07.696Z,97074.13
2023-03-22T13:50:36.944Z,97077.13
2023-03-22T13:53:14.664Z,97073.91
2023-03-22T13:55:59.921Z,97069.56
2023-03-22T13:58:38.475Z,97072.28
2023-03-22T14:01:14.005Z,97071.69
2023-03-22T14:03:45.681Z,97066.28
2023-03-22T14:06:20.206Z,97066.25
2023-03-22T14:08:57.108Z,97071.13
2023-03-22T14:11:30.527Z,97067.84
2023-03-22T14:14:05.120Z,97061.03
2023-03-22T14:16:41.896Z,97067.22
2023-03-22T14:19:23.920Z,97062.25
